sensor_id;sensor_type;location;lat;lon;timestamp;P1;durP1;ratioP1;P2;durP2;ratioP2
16516;SDS011;8371;52.272;9.746;2023-02-04T00:01:02;8.10;;;2.60;;
16516;SDS011;8371;52.272;9.746;2023-02-04T00:03:28;10.67;;;3.20;;
16516;SDS011;8371;52.272;9.746;2023-02-04T00:05:54;8.67;;;2.17;;
16516;SDS011;8371;52.272;9.746;2023-02-04T00:08:19;14.83;;;3.07;;
16516;SDS011;8371;52.272;9.746;2023-02-04T00:10:45;11.13;;;2.83;;
16516;SDS011;8371;52.272;9.746;2023-02-04T00:13:11;8.07;;;2.00;;
16516;SDS011;8371;52.272;9.746;2023-02-04T00:15:37;6.83;;;2.20;;
16516;SDS011;8371;52.272;9.746;2023-02-04T00:18:03;4.70;;;2.00;;
16516;SDS011;8371;52.272;9.746;2023-02-04T00:20:29;4.20;;;2.30;;
16516;SDS011;8371;52.272;9.746;2023-02-04T00:22:55;6.50;;;1.83;;
16516;SDS011;8371;52.272;9.746;2023-02-04T00:25:21;5.43;;;1.87;;
16516;SDS011;8371;52.272;9.746;2023-02-04T00:27:47;5.17;;;2.10;;
16516;SDS011;8371;52.272;9.746;2023-02-04T00:30:12;4.10;;;1.80;;
16516;SDS011;8371;52.272;9.746;2023-02-04T00:32:38;3.70;;;1.70;;
16516;SDS011;8371;52.272;9.746;2023-02-04T00:35:04;5.70;;;1.60;;
16516;SDS011;8371;52.272;9.746;2023-02-04T00:37:31;2.37;;;1.30;;
16516;SDS011;8371;52.272;9.746;2023-02-04T00:39:57;4.70;;;1.80;;
16516;SDS011;8371;52.272;9.746;2023-02-04T00:42:22;3.97;;;2.07;;
16516;SDS011;8371;52.272;9.746;2023-02-04T00:44:48;2.47;;;1.50;;
16516;SDS011;8371;52.272;9.746;2023-02-04T00:47:14;4.43;;;1.70;;
16516;SDS011;8371;52.272;9.746;2023-02-04T00:49:39;2.70;;;1.40;;
16516;SDS011;8371;52.272;9.746;2023-02-04T00:52:05;4.30;;;1.33;;
16516;SDS011;8371;52.272;9.746;2023-02-04T00:54:31;5.03;;;1.70;;
16516;SDS011;8371;52.272;9.746;2023-02-04T00:56:57;9.37;;;2.33;;
16516;SDS011;8371;52.272;9.746;2023-02-04T00:59:22;3.97;;;1.67;;
16516;SDS011;8371;52.272;9.746;2023-02-04T01:01:49;4.87;;;1.40;;
16516;SDS011;8371;52.272;9.746;2023-02-04T01:04:15;4.57;;;1.47;;
16516;SDS011;8371;52.272;9.746;2023-02-04T01:06:41;3.80;;;1.20;;
16516;SDS011;8371;52.272;9.746;2023-02-04T01:09:07;4.57;;;1.50;;
16516;SDS011;8371;52.272;9.746;2023-02-04T01:11:33;3.10;;;1.20;;
16516;SDS011;8371;52.272;9.746;2023-02-04T01:13:59;1.70;;;1.47;;
16516;SDS011;8371;52.272;9.746;2023-02-04T01:16:24;4.37;;;1.53;;
16516;SDS011;8371;52.272;9.746;2023-02-04T01:18:50;3.77;;;1.17;;
16516;SDS011;8371;52.272;9.746;2023-02-04T01:21:16;6.07;;;1.23;;
16516;SDS011;8371;52.272;9.746;2023-02-04T01:23:41;1.87;;;1.30;;
16516;SDS011;8371;52.272;9.746;2023-02-04T01:26:07;2.00;;;1.30;;
16516;SDS011;8371;52.272;9.746;2023-02-04T01:28:33;3.30;;;1.20;;
16516;SDS011;8371;52.272;9.746;2023-02-04T01:30:58;1.30;;;1.00;;
16516;SDS011;8371;52.272;9.746;2023-02-04T01:33:25;2.13;;;1.10;;
16516;SDS011;8371;52.272;9.746;2023-02-04T01:35:51;3.53;;;1.00;;
16516;SDS011;8371;52.272;9.746;2023-02-04T01:38:16;1.27;;;0.90;;
16516;SDS011;8371;52.272;9.746;2023-02-04T01:40:42;1.00;;;0.53;;
16516;SDS011;8371;52.272;9.746;2023-02-04T01:43:08;1.37;;;1.27;;
16516;SDS011;8371;52.272;9.746;2023-02-04T01:45:34;1.97;;;0.67;;
16516;SDS011;8371;52.272;9.746;2023-02-04T01:48:01;0.47;;;0.40;;
16516;SDS011;8371;52.272;9.746;2023-02-04T01:50:28;1.23;;;0.67;;
16516;SDS011;8371;52.272;9.746;2023-02-04T01:52:54;0.40;;;0.40;;
16516;SDS011;8371;52.272;9.746;2023-02-04T01:55:20;0.43;;;0.43;;
16516;SDS011;8371;52.272;9.746;2023-02-04T01:57:49;0.60;;;0.60;;
16516;SDS011;8371;52.272;9.746;2023-02-04T02:00:23;0.63;;;0.63;;
16516;SDS011;8371;52.272;9.746;2023-02-04T02:02:50;0.90;;;0.60;;
16516;SDS011;8371;52.272;9.746;2023-02-04T02:05:18;0.60;;;0.60;;
16516;SDS011;8371;52.272;9.746;2023-02-04T02:07:47;1.67;;;0.33;;
16516;SDS011;8371;52.272;9.746;2023-02-04T02:10:14;1.33;;;0.60;;
16516;SDS011;8371;52.272;9.746;2023-02-04T02:12:41;0.70;;;0.53;;
16516;SDS011;8371;52.272;9.746;2023-02-04T02:15:08;0.80;;;0.70;;
16516;SDS011;8371;52.272;9.746;2023-02-04T02:17:35;0.57;;;0.57;;
16516;SDS011;8371;52.272;9.746;2023-02-04T02:20:01;0.50;;;0.50;;
16516;SDS011;8371;52.272;9.746;2023-02-04T02:22:29;2.07;;;0.83;;
16516;SDS011;8371;52.272;9.746;2023-02-04T02:25:14;0.70;;;0.50;;
16516;SDS011;8371;52.272;9.746;2023-02-04T02:27:40;0.40;;;0.40;;
16516;SDS011;8371;52.272;9.746;2023-02-04T02:30:06;1.03;;;0.60;;
16516;SDS011;8371;52.272;9.746;2023-02-04T02:32:35;0.50;;;0.50;;
16516;SDS011;8371;52.272;9.746;2023-02-04T02:35:01;0.33;;;0.23;;
16516;SDS011;8371;52.272;9.746;2023-02-04T02:37:29;1.53;;;0.40;;
16516;SDS011;8371;52.272;9.746;2023-02-04T02:39:55;0.60;;;0.60;;
16516;SDS011;8371;52.272;9.746;2023-02-04T02:42:21;0.30;;;0.30;;
16516;SDS011;8371;52.272;9.746;2023-02-04T02:44:47;0.57;;;0.57;;
16516;SDS011;8371;52.272;9.746;2023-02-04T02:47:14;0.73;;;0.40;;
16516;SDS011;8371;52.272;9.746;2023-02-04T02:49:42;0.57;;;0.53;;
16516;SDS011;8371;52.272;9.746;2023-02-04T02:52:09;1.23;;;0.60;;
16516;SDS011;8371;52.272;9.746;2023-02-04T02:54:36;0.93;;;0.93;;
16516;SDS011;8371;52.272;9.746;2023-02-04T02:57:04;0.73;;;0.40;;
16516;SDS011;8371;52.272;9.746;2023-02-04T02:59:38;0.40;;;0.40;;
16516;SDS011;8371;52.272;9.746;2023-02-04T03:02:03;0.60;;;0.60;;
16516;SDS011;8371;52.272;9.746;2023-02-04T03:04:31;0.70;;;0.70;;
16516;SDS011;8371;52.272;9.746;2023-02-04T03:06:59;0.50;;;0.50;;
16516;SDS011;8371;52.272;9.746;2023-02-04T03:09:25;0.40;;;0.40;;
16516;SDS011;8371;52.272;9.746;2023-02-04T03:11:52;1.03;;;0.50;;
16516;SDS011;8371;52.272;9.746;2023-02-04T03:14:18;0.30;;;0.30;;
16516;SDS011;8371;52.272;9.746;2023-02-04T03:16:45;0.40;;;0.40;;
16516;SDS011;8371;52.272;9.746;2023-02-04T03:19:12;0.40;;;0.40;;
16516;SDS011;8371;52.272;9.746;2023-02-04T03:21:38;0.40;;;0.40;;
16516;SDS011;8371;52.272;9.746;2023-02-04T03:24:04;0.87;;;0.87;;
16516;SDS011;8371;52.272;9.746;2023-02-04T03:26:30;0.70;;;0.70;;
16516;SDS011;8371;52.272;9.746;2023-02-04T03:28:56;0.70;;;0.70;;
16516;SDS011;8371;52.272;9.746;2023-02-04T03:31:23;0.87;;;0.87;;
16516;SDS011;8371;52.272;9.746;2023-02-04T03:33:48;0.47;;;0.47;;
16516;SDS011;8371;52.272;9.746;2023-02-04T03:36:14;0.50;;;0.50;;
16516;SDS011;8371;52.272;9.746;2023-02-04T03:38:40;1.80;;;0.70;;
16516;SDS011;8371;52.272;9.746;2023-02-04T03:41:06;0.30;;;0.30;;
16516;SDS011;8371;52.272;9.746;2023-02-04T03:43:31;0.60;;;0.60;;
16516;SDS011;8371;52.272;9.746;2023-02-04T03:45:57;0.40;;;0.40;;
16516;SDS011;8371;52.272;9.746;2023-02-04T03:48:22;0.53;;;0.53;;
16516;SDS011;8371;52.272;9.746;2023-02-04T03:50:48;0.40;;;0.40;;
16516;SDS011;8371;52.272;9.746;2023-02-04T03:53:14;1.00;;;0.50;;
16516;SDS011;8371;52.272;9.746;2023-02-04T03:55:39;0.60;;;0.60;;
16516;SDS011;8371;52.272;9.746;2023-02-04T03:58:05;0.40;;;0.40;;
16516;SDS011;8371;52.272;9.746;2023-02-04T04:00:31;0.40;;;0.40;;
16516;SDS011;8371;52.272;9.746;2023-02-04T04:02:57;0.27;;;0.20;;
16516;SDS011;8371;52.272;9.746;2023-02-04T04:05:23;0.67;;;0.67;;
16516;SDS011;8371;52.272;9.746;2023-02-04T04:07:49;0.30;;;0.30;;
16516;SDS011;8371;52.272;9.746;2023-02-04T04:10:15;0.37;;;0.37;;
16516;SDS011;8371;52.272;9.746;2023-02-04T04:12:41;0.50;;;0.50;;
16516;SDS011;8371;52.272;9.746;2023-02-04T04:15:07;0.50;;;0.50;;
16516;SDS011;8371;52.272;9.746;2023-02-04T04:17:33;0.50;;;0.50;;
16516;SDS011;8371;52.272;9.746;2023-02-04T04:19:59;0.50;;;0.50;;
16516;SDS011;8371;52.272;9.746;2023-02-04T04:22:25;0.47;;;0.47;;
16516;SDS011;8371;52.272;9.746;2023-02-04T04:24:51;0.57;;;0.57;;
16516;SDS011;8371;52.272;9.746;2023-02-04T04:27:16;0.40;;;0.40;;
16516;SDS011;8371;52.272;9.746;2023-02-04T04:29:42;0.40;;;0.40;;
16516;SDS011;8371;52.272;9.746;2023-02-04T04:32:08;0.37;;;0.30;;
16516;SDS011;8371;52.272;9.746;2023-02-04T04:34:34;0.60;;;0.60;;
16516;SDS011;8371;52.272;9.746;2023-02-04T04:37:00;0.43;;;0.43;;
16516;SDS011;8371;52.272;9.746;2023-02-04T04:39:26;0.60;;;0.50;;
16516;SDS011;8371;52.272;9.746;2023-02-04T04:41:52;0.30;;;0.30;;
16516;SDS011;8371;52.272;9.746;2023-02-04T04:44:17;0.40;;;0.40;;
16516;SDS011;8371;52.272;9.746;2023-02-04T04:46:43;0.33;;;0.33;;
16516;SDS011;8371;52.272;9.746;2023-02-04T04:49:08;0.30;;;0.30;;
16516;SDS011;8371;52.272;9.746;2023-02-04T04:51:34;0.43;;;0.43;;
16516;SDS011;8371;52.272;9.746;2023-02-04T04:54:00;0.40;;;0.40;;
16516;SDS011;8371;52.272;9.746;2023-02-04T04:56:25;0.43;;;0.43;;
16516;SDS011;8371;52.272;9.746;2023-02-04T04:58:51;0.47;;;0.47;;
16516;SDS011;8371;52.272;9.746;2023-02-04T05:01:17;0.30;;;0.30;;
16516;SDS011;8371;52.272;9.746;2023-02-04T05:03:43;0.30;;;0.30;;
16516;SDS011;8371;52.272;9.746;2023-02-04T05:06:08;0.40;;;0.40;;
16516;SDS011;8371;52.272;9.746;2023-02-04T05:08:35;0.60;;;0.60;;
16516;SDS011;8371;52.272;9.746;2023-02-04T05:11:01;0.20;;;0.20;;
16516;SDS011;8371;52.272;9.746;2023-02-04T05:13:27;0.30;;;0.30;;
16516;SDS011;8371;52.272;9.746;2023-02-04T05:15:53;0.40;;;0.40;;
16516;SDS011;8371;52.272;9.746;2023-02-04T05:18:19;0.20;;;0.20;;
16516;SDS011;8371;52.272;9.746;2023-02-04T05:20:44;0.40;;;0.40;;
16516;SDS011;8371;52.272;9.746;2023-02-04T05:23:10;0.50;;;0.50;;
16516;SDS011;8371;52.272;9.746;2023-02-04T05:25:36;0.37;;;0.37;;
16516;SDS011;8371;52.272;9.746;2023-02-04T05:28:02;0.50;;;0.50;;
16516;SDS011;8371;52.272;9.746;2023-02-04T05:30:27;1.30;;;0.80;;
16516;SDS011;8371;52.272;9.746;2023-02-04T05:32:54;0.40;;;0.40;;
16516;SDS011;8371;52.272;9.746;2023-02-04T05:35:19;0.33;;;0.33;;
16516;SDS011;8371;52.272;9.746;2023-02-04T05:37:45;0.40;;;0.40;;
16516;SDS011;8371;52.272;9.746;2023-02-04T05:40:11;0.40;;;0.40;;
16516;SDS011;8371;52.272;9.746;2023-02-04T05:42:37;0.43;;;0.43;;
16516;SDS011;8371;52.272;9.746;2023-02-04T05:45:02;0.57;;;0.30;;
16516;SDS011;8371;52.272;9.746;2023-02-04T05:47:28;0.40;;;0.40;;
16516;SDS011;8371;52.272;9.746;2023-02-04T05:49:54;0.40;;;0.40;;
16516;SDS011;8371;52.272;9.746;2023-02-04T05:52:20;0.40;;;0.40;;
16516;SDS011;8371;52.272;9.746;2023-02-04T05:54:46;0.30;;;0.30;;
16516;SDS011;8371;52.272;9.746;2023-02-04T05:57:12;0.57;;;0.57;;
16516;SDS011;8371;52.272;9.746;2023-02-04T05:59:37;0.40;;;0.40;;
16516;SDS011;8371;52.272;9.746;2023-02-04T06:02:03;0.50;;;0.50;;
16516;SDS011;8371;52.272;9.746;2023-02-04T06:04:29;0.53;;;0.53;;
16516;SDS011;8371;52.272;9.746;2023-02-04T06:06:54;0.50;;;0.50;;
16516;SDS011;8371;52.272;9.746;2023-02-04T06:09:20;0.40;;;0.40;;
16516;SDS011;8371;52.272;9.746;2023-02-04T06:11:46;0.40;;;0.40;;
16516;SDS011;8371;52.272;9.746;2023-02-04T06:14:11;1.00;;;0.40;;
16516;SDS011;8371;52.272;9.746;2023-02-04T06:16:37;0.50;;;0.50;;
16516;SDS011;8371;52.272;9.746;2023-02-04T06:19:03;0.53;;;0.53;;
16516;SDS011;8371;52.272;9.746;2023-02-04T06:21:28;0.50;;;0.50;;
16516;SDS011;8371;52.272;9.746;2023-02-04T06:23:54;0.40;;;0.40;;
16516;SDS011;8371;52.272;9.746;2023-02-04T06:26:20;0.43;;;0.43;;
16516;SDS011;8371;52.272;9.746;2023-02-04T06:28:45;0.70;;;0.70;;
16516;SDS011;8371;52.272;9.746;2023-02-04T06:31:11;0.50;;;0.50;;
16516;SDS011;8371;52.272;9.746;2023-02-04T06:33:37;0.50;;;0.50;;
16516;SDS011;8371;52.272;9.746;2023-02-04T06:36:03;0.70;;;0.70;;
16516;SDS011;8371;52.272;9.746;2023-02-04T06:38:29;0.43;;;0.43;;
16516;SDS011;8371;52.272;9.746;2023-02-04T06:40:55;0.30;;;0.30;;
16516;SDS011;8371;52.272;9.746;2023-02-04T06:43:21;0.60;;;0.60;;
16516;SDS011;8371;52.272;9.746;2023-02-04T06:45:48;0.50;;;0.50;;
16516;SDS011;8371;52.272;9.746;2023-02-04T06:48:15;0.37;;;0.37;;
16516;SDS011;8371;52.272;9.746;2023-02-04T06:50:41;0.80;;;0.80;;
16516;SDS011;8371;52.272;9.746;2023-02-04T06:53:06;0.70;;;0.70;;
16516;SDS011;8371;52.272;9.746;2023-02-04T06:55:32;0.60;;;0.60;;
16516;SDS011;8371;52.272;9.746;2023-02-04T06:57:58;0.60;;;0.60;;
16516;SDS011;8371;52.272;9.746;2023-02-04T07:00:23;0.70;;;0.70;;
16516;SDS011;8371;52.272;9.746;2023-02-04T07:02:49;0.53;;;0.53;;
16516;SDS011;8371;52.272;9.746;2023-02-04T07:05:15;1.57;;;0.60;;
16516;SDS011;8371;52.272;9.746;2023-02-04T07:07:40;0.50;;;0.50;;
16516;SDS011;8371;52.272;9.746;2023-02-04T07:10:06;0.70;;;0.70;;
16516;SDS011;8371;52.272;9.746;2023-02-04T07:12:32;0.50;;;0.50;;
16516;SDS011;8371;52.272;9.746;2023-02-04T07:14:57;0.87;;;0.87;;
16516;SDS011;8371;52.272;9.746;2023-02-04T07:17:23;0.60;;;0.60;;
16516;SDS011;8371;52.272;9.746;2023-02-04T07:19:49;0.83;;;0.83;;
16516;SDS011;8371;52.272;9.746;2023-02-04T07:22:14;0.83;;;0.83;;
16516;SDS011;8371;52.272;9.746;2023-02-04T07:24:40;0.70;;;0.70;;
16516;SDS011;8371;52.272;9.746;2023-02-04T07:27:06;0.60;;;0.60;;
16516;SDS011;8371;52.272;9.746;2023-02-04T07:29:31;0.60;;;0.60;;
16516;SDS011;8371;52.272;9.746;2023-02-04T07:31:57;0.90;;;0.90;;
16516;SDS011;8371;52.272;9.746;2023-02-04T07:34:23;0.80;;;0.80;;
16516;SDS011;8371;52.272;9.746;2023-02-04T07:36:48;1.47;;;0.50;;
16516;SDS011;8371;52.272;9.746;2023-02-04T07:39:14;1.10;;;1.10;;
16516;SDS011;8371;52.272;9.746;2023-02-04T07:41:40;0.90;;;0.90;;
16516;SDS011;8371;52.272;9.746;2023-02-04T07:44:06;0.80;;;0.80;;
16516;SDS011;8371;52.272;9.746;2023-02-04T07:46:32;1.33;;;0.70;;
16516;SDS011;8371;52.272;9.746;2023-02-04T07:48:57;1.30;;;1.20;;
16516;SDS011;8371;52.272;9.746;2023-02-04T07:51:23;0.80;;;0.80;;
16516;SDS011;8371;52.272;9.746;2023-02-04T07:53:49;0.60;;;0.60;;
16516;SDS011;8371;52.272;9.746;2023-02-04T07:56:14;0.87;;;0.87;;
16516;SDS011;8371;52.272;9.746;2023-02-04T07:58:40;1.07;;;1.07;;
16516;SDS011;8371;52.272;9.746;2023-02-04T08:01:06;0.80;;;0.80;;
16516;SDS011;8371;52.272;9.746;2023-02-04T08:03:32;0.93;;;0.93;;
16516;SDS011;8371;52.272;9.746;2023-02-04T08:05:57;1.07;;;1.07;;
16516;SDS011;8371;52.272;9.746;2023-02-04T08:08:23;1.00;;;1.00;;
16516;SDS011;8371;52.272;9.746;2023-02-04T08:10:49;1.00;;;1.00;;
16516;SDS011;8371;52.272;9.746;2023-02-04T08:13:14;0.80;;;0.80;;
16516;SDS011;8371;52.272;9.746;2023-02-04T08:15:40;1.10;;;1.10;;
16516;SDS011;8371;52.272;9.746;2023-02-04T08:18:06;0.93;;;0.93;;
16516;SDS011;8371;52.272;9.746;2023-02-04T08:20:31;3.43;;;1.10;;
16516;SDS011;8371;52.272;9.746;2023-02-04T08:22:57;1.00;;;1.00;;
16516;SDS011;8371;52.272;9.746;2023-02-04T08:25:23;1.83;;;0.73;;
16516;SDS011;8371;52.272;9.746;2023-02-04T08:27:49;1.40;;;1.30;;
16516;SDS011;8371;52.272;9.746;2023-02-04T08:30:14;1.03;;;1.03;;
16516;SDS011;8371;52.272;9.746;2023-02-04T08:32:40;1.10;;;1.10;;
16516;SDS011;8371;52.272;9.746;2023-02-04T08:35:06;1.13;;;1.13;;
16516;SDS011;8371;52.272;9.746;2023-02-04T08:37:33;1.20;;;1.20;;
16516;SDS011;8371;52.272;9.746;2023-02-04T08:39:58;1.17;;;1.17;;
16516;SDS011;8371;52.272;9.746;2023-02-04T08:42:24;1.27;;;1.27;;
16516;SDS011;8371;52.272;9.746;2023-02-04T08:44:50;1.17;;;1.17;;
16516;SDS011;8371;52.272;9.746;2023-02-04T08:47:15;1.40;;;1.40;;
16516;SDS011;8371;52.272;9.746;2023-02-04T08:49:41;1.43;;;1.43;;
16516;SDS011;8371;52.272;9.746;2023-02-04T08:52:07;1.47;;;1.37;;
16516;SDS011;8371;52.272;9.746;2023-02-04T08:54:34;1.77;;;1.70;;
16516;SDS011;8371;52.272;9.746;2023-02-04T08:57:00;1.47;;;1.47;;
16516;SDS011;8371;52.272;9.746;2023-02-04T08:59:26;0.90;;;0.90;;
16516;SDS011;8371;52.272;9.746;2023-02-04T09:01:52;1.20;;;1.20;;
16516;SDS011;8371;52.272;9.746;2023-02-04T09:04:18;0.80;;;0.80;;
16516;SDS011;8371;52.272;9.746;2023-02-04T09:06:45;1.23;;;1.07;;
16516;SDS011;8371;52.272;9.746;2023-02-04T09:09:12;2.47;;;1.20;;
16516;SDS011;8371;52.272;9.746;2023-02-04T09:11:38;1.53;;;1.23;;
16516;SDS011;8371;52.272;9.746;2023-02-04T09:14:04;1.10;;;1.10;;
16516;SDS011;8371;52.272;9.746;2023-02-04T09:16:29;1.00;;;1.00;;
16516;SDS011;8371;52.272;9.746;2023-02-04T09:18:55;1.50;;;1.40;;
16516;SDS011;8371;52.272;9.746;2023-02-04T09:21:22;1.50;;;1.00;;
16516;SDS011;8371;52.272;9.746;2023-02-04T09:23:48;0.93;;;0.93;;
16516;SDS011;8371;52.272;9.746;2023-02-04T09:26:14;0.70;;;0.70;;
16516;SDS011;8371;52.272;9.746;2023-02-04T09:28:40;0.80;;;0.80;;
16516;SDS011;8371;52.272;9.746;2023-02-04T09:31:06;1.07;;;1.07;;
16516;SDS011;8371;52.272;9.746;2023-02-04T09:33:32;0.80;;;0.80;;
16516;SDS011;8371;52.272;9.746;2023-02-04T09:35:58;0.90;;;0.90;;
16516;SDS011;8371;52.272;9.746;2023-02-04T09:38:24;2.30;;;0.90;;
16516;SDS011;8371;52.272;9.746;2023-02-04T09:40:53;0.90;;;0.90;;
16516;SDS011;8371;52.272;9.746;2023-02-04T09:43:23;0.93;;;0.93;;
16516;SDS011;8371;52.272;9.746;2023-02-04T09:45:51;1.27;;;1.17;;
16516;SDS011;8371;52.272;9.746;2023-02-04T09:48:18;1.53;;;1.10;;
16516;SDS011;8371;52.272;9.746;2023-02-04T09:50:43;1.00;;;1.00;;
16516;SDS011;8371;52.272;9.746;2023-02-04T09:53:11;0.80;;;0.80;;
16516;SDS011;8371;52.272;9.746;2023-02-04T09:55:40;0.60;;;0.60;;
16516;SDS011;8371;52.272;9.746;2023-02-04T09:58:12;0.93;;;0.93;;
16516;SDS011;8371;52.272;9.746;2023-02-04T10:00:41;0.90;;;0.90;;
16516;SDS011;8371;52.272;9.746;2023-02-04T10:03:16;0.83;;;0.83;;
16516;SDS011;8371;52.272;9.746;2023-02-04T10:05:43;0.73;;;0.73;;
16516;SDS011;8371;52.272;9.746;2023-02-04T10:08:14;0.97;;;0.77;;
16516;SDS011;8371;52.272;9.746;2023-02-04T10:10:42;0.87;;;0.87;;
16516;SDS011;8371;52.272;9.746;2023-02-04T10:13:20;0.70;;;0.70;;
16516;SDS011;8371;52.272;9.746;2023-02-04T10:15:54;0.67;;;0.67;;
16516;SDS011;8371;52.272;9.746;2023-02-04T10:18:27;1.30;;;1.20;;
16516;SDS011;8371;52.272;9.746;2023-02-04T10:23:44;1.00;;;1.00;;
16516;SDS011;8371;52.272;9.746;2023-02-04T10:26:12;0.90;;;0.90;;
16516;SDS011;8371;52.272;9.746;2023-02-04T10:28:39;0.90;;;0.90;;
16516;SDS011;8371;52.272;9.746;2023-02-04T10:31:06;0.90;;;0.90;;
16516;SDS011;8371;52.272;9.746;2023-02-04T10:34:12;1.00;;;1.00;;
16516;SDS011;8371;52.272;9.746;2023-02-04T10:36:40;1.43;;;1.37;;
16516;SDS011;8371;52.272;9.746;2023-02-04T10:44:16;1.10;;;1.10;;
16516;SDS011;8371;52.272;9.746;2023-02-04T10:46:43;0.90;;;0.90;;
16516;SDS011;8371;52.272;9.746;2023-02-04T10:49:15;0.90;;;0.90;;
16516;SDS011;8371;52.272;9.746;2023-02-04T10:51:42;1.00;;;1.00;;
16516;SDS011;8371;52.272;9.746;2023-02-04T10:54:09;0.90;;;0.90;;
16516;SDS011;8371;52.272;9.746;2023-02-04T10:56:58;1.10;;;1.00;;
16516;SDS011;8371;52.272;9.746;2023-02-04T10:59:35;0.70;;;0.70;;
16516;SDS011;8371;52.272;9.746;2023-02-04T11:02:01;1.10;;;1.00;;
16516;SDS011;8371;52.272;9.746;2023-02-04T11:04:31;0.80;;;0.80;;
16516;SDS011;8371;52.272;9.746;2023-02-04T11:06:56;1.37;;;1.30;;
16516;SDS011;8371;52.272;9.746;2023-02-04T11:09:23;1.00;;;1.00;;
16516;SDS011;8371;52.272;9.746;2023-02-04T11:11:49;1.00;;;1.00;;
16516;SDS011;8371;52.272;9.746;2023-02-04T11:14:28;0.83;;;0.83;;
16516;SDS011;8371;52.272;9.746;2023-02-04T11:16:55;0.90;;;0.90;;
16516;SDS011;8371;52.272;9.746;2023-02-04T11:19:32;0.67;;;0.67;;
16516;SDS011;8371;52.272;9.746;2023-02-04T11:22:17;0.77;;;0.77;;
16516;SDS011;8371;52.272;9.746;2023-02-04T11:24:47;0.87;;;0.87;;
16516;SDS011;8371;52.272;9.746;2023-02-04T11:27:18;0.83;;;0.83;;
16516;SDS011;8371;52.272;9.746;2023-02-04T11:29:52;0.97;;;0.97;;
16516;SDS011;8371;52.272;9.746;2023-02-04T11:32:34;0.97;;;0.97;;
16516;SDS011;8371;52.272;9.746;2023-02-04T11:37:41;0.67;;;0.67;;
16516;SDS011;8371;52.272;9.746;2023-02-04T11:40:11;0.80;;;0.80;;
16516;SDS011;8371;52.272;9.746;2023-02-04T11:42:40;2.10;;;0.87;;
16516;SDS011;8371;52.272;9.746;2023-02-04T11:45:11;0.87;;;0.87;;
16516;SDS011;8371;52.272;9.746;2023-02-04T11:47:38;0.90;;;0.90;;
16516;SDS011;8371;52.272;9.746;2023-02-04T11:50:25;0.90;;;0.90;;
16516;SDS011;8371;52.272;9.746;2023-02-04T11:52:58;0.93;;;0.93;;
16516;SDS011;8371;52.272;9.746;2023-02-04T11:55:29;2.63;;;1.00;;
16516;SDS011;8371;52.272;9.746;2023-02-04T11:57:56;1.10;;;1.10;;
16516;SDS011;8371;52.272;9.746;2023-02-04T12:00:23;0.73;;;0.73;;
16516;SDS011;8371;52.272;9.746;2023-02-04T12:02:56;0.90;;;0.90;;
16516;SDS011;8371;52.272;9.746;2023-02-04T12:05:34;0.77;;;0.77;;
16516;SDS011;8371;52.272;9.746;2023-02-04T12:08:09;1.13;;;0.83;;
16516;SDS011;8371;52.272;9.746;2023-02-04T12:10:36;0.90;;;0.90;;
16516;SDS011;8371;52.272;9.746;2023-02-04T12:13:10;0.90;;;0.90;;
16516;SDS011;8371;52.272;9.746;2023-02-04T12:15:33;1.00;;;1.00;;
16516;SDS011;8371;52.272;9.746;2023-02-04T12:18:03;1.30;;;1.20;;
16516;SDS011;8371;52.272;9.746;2023-02-04T12:20:32;0.80;;;0.80;;
16516;SDS011;8371;52.272;9.746;2023-02-04T12:22:58;0.83;;;0.60;;
16516;SDS011;8371;52.272;9.746;2023-02-04T12:25:24;0.70;;;0.70;;
16516;SDS011;8371;52.272;9.746;2023-02-04T12:27:51;0.90;;;0.90;;
16516;SDS011;8371;52.272;9.746;2023-02-04T12:30:20;1.23;;;0.80;;
16516;SDS011;8371;52.272;9.746;2023-02-04T12:32:47;0.60;;;0.60;;
16516;SDS011;8371;52.272;9.746;2023-02-04T12:35:13;0.50;;;0.50;;
16516;SDS011;8371;52.272;9.746;2023-02-04T12:37:39;0.93;;;0.83;;
16516;SDS011;8371;52.272;9.746;2023-02-04T12:40:05;0.70;;;0.70;;
16516;SDS011;8371;52.272;9.746;2023-02-04T12:42:31;0.70;;;0.70;;
16516;SDS011;8371;52.272;9.746;2023-02-04T12:44:57;1.60;;;0.60;;
16516;SDS011;8371;52.272;9.746;2023-02-04T12:47:23;0.73;;;0.73;;
16516;SDS011;8371;52.272;9.746;2023-02-04T12:49:49;0.60;;;0.60;;
16516;SDS011;8371;52.272;9.746;2023-02-04T12:52:15;0.70;;;0.70;;
16516;SDS011;8371;52.272;9.746;2023-02-04T12:54:40;3.40;;;0.60;;
16516;SDS011;8371;52.272;9.746;2023-02-04T12:57:08;0.80;;;0.80;;
16516;SDS011;8371;52.272;9.746;2023-02-04T12:59:35;0.80;;;0.80;;
16516;SDS011;8371;52.272;9.746;2023-02-04T13:02:01;1.13;;;1.13;;
16516;SDS011;8371;52.272;9.746;2023-02-04T13:04:26;1.30;;;0.90;;
16516;SDS011;8371;52.272;9.746;2023-02-04T13:06:52;1.00;;;1.00;;
16516;SDS011;8371;52.272;9.746;2023-02-04T13:09:18;0.80;;;0.80;;
16516;SDS011;8371;52.272;9.746;2023-02-04T13:11:44;0.87;;;0.87;;
16516;SDS011;8371;52.272;9.746;2023-02-04T13:14:09;0.67;;;0.67;;
16516;SDS011;8371;52.272;9.746;2023-02-04T13:16:35;1.00;;;1.00;;
16516;SDS011;8371;52.272;9.746;2023-02-04T13:19:01;0.80;;;0.80;;
16516;SDS011;8371;52.272;9.746;2023-02-04T13:21:26;1.00;;;1.00;;
16516;SDS011;8371;52.272;9.746;2023-02-04T13:23:52;0.90;;;0.90;;
16516;SDS011;8371;52.272;9.746;2023-02-04T13:26:18;1.23;;;1.23;;
16516;SDS011;8371;52.272;9.746;2023-02-04T13:28:43;1.10;;;1.10;;
16516;SDS011;8371;52.272;9.746;2023-02-04T13:31:09;1.30;;;1.20;;
16516;SDS011;8371;52.272;9.746;2023-02-04T13:33:35;1.43;;;1.43;;
16516;SDS011;8371;52.272;9.746;2023-02-04T13:36:00;0.67;;;0.67;;
16516;SDS011;8371;52.272;9.746;2023-02-04T13:38:26;1.47;;;0.90;;
16516;SDS011;8371;52.272;9.746;2023-02-04T13:40:52;1.00;;;1.00;;
16516;SDS011;8371;52.272;9.746;2023-02-04T13:43:17;1.10;;;1.00;;
16516;SDS011;8371;52.272;9.746;2023-02-04T13:45:43;1.03;;;1.03;;
16516;SDS011;8371;52.272;9.746;2023-02-04T13:48:11;1.03;;;1.03;;
16516;SDS011;8371;52.272;9.746;2023-02-04T13:50:36;1.10;;;1.10;;
16516;SDS011;8371;52.272;9.746;2023-02-04T13:53:02;1.33;;;1.20;;
16516;SDS011;8371;52.272;9.746;2023-02-04T13:55:28;1.20;;;1.20;;
16516;SDS011;8371;52.272;9.746;2023-02-04T13:57:53;1.43;;;1.30;;
16516;SDS011;8371;52.272;9.746;2023-02-04T14:00:19;1.23;;;1.23;;
16516;SDS011;8371;52.272;9.746;2023-02-04T14:02:45;1.30;;;1.30;;
16516;SDS011;8371;52.272;9.746;2023-02-04T14:05:12;1.17;;;1.17;;
16516;SDS011;8371;52.272;9.746;2023-02-04T14:07:39;1.23;;;1.23;;
16516;SDS011;8371;52.272;9.746;2023-02-04T14:10:05;1.23;;;1.17;;
16516;SDS011;8371;52.272;9.746;2023-02-04T14:12:31;0.50;;;0.50;;
16516;SDS011;8371;52.272;9.746;2023-02-04T14:14:57;0.80;;;0.80;;
16516;SDS011;8371;52.272;9.746;2023-02-04T14:17:22;0.70;;;0.70;;
16516;SDS011;8371;52.272;9.746;2023-02-04T14:19:48;1.10;;;1.10;;
16516;SDS011;8371;52.272;9.746;2023-02-04T14:22:14;0.87;;;0.87;;
16516;SDS011;8371;52.272;9.746;2023-02-04T14:24:40;0.90;;;0.90;;
16516;SDS011;8371;52.272;9.746;2023-02-04T14:27:07;0.90;;;0.90;;
16516;SDS011;8371;52.272;9.746;2023-02-04T14:29:34;0.80;;;0.80;;
16516;SDS011;8371;52.272;9.746;2023-02-04T14:32:00;0.80;;;0.80;;
16516;SDS011;8371;52.272;9.746;2023-02-04T14:34:26;0.80;;;0.80;;
16516;SDS011;8371;52.272;9.746;2023-02-04T14:36:51;0.43;;;0.43;;
16516;SDS011;8371;52.272;9.746;2023-02-04T14:39:17;0.77;;;0.77;;
16516;SDS011;8371;52.272;9.746;2023-02-04T14:41:43;0.60;;;0.60;;
16516;SDS011;8371;52.272;9.746;2023-02-04T14:44:09;0.60;;;0.60;;
16516;SDS011;8371;52.272;9.746;2023-02-04T14:46:34;0.70;;;0.70;;
16516;SDS011;8371;52.272;9.746;2023-02-04T14:49:00;0.77;;;0.77;;
16516;SDS011;8371;52.272;9.746;2023-02-04T14:51:26;1.17;;;0.87;;
16516;SDS011;8371;52.272;9.746;2023-02-04T14:53:52;0.50;;;0.50;;
16516;SDS011;8371;52.272;9.746;2023-02-04T14:56:17;1.70;;;1.10;;
16516;SDS011;8371;52.272;9.746;2023-02-04T14:58:43;0.80;;;0.80;;
16516;SDS011;8371;52.272;9.746;2023-02-04T15:01:09;0.70;;;0.70;;
16516;SDS011;8371;52.272;9.746;2023-02-04T15:03:35;1.00;;;0.90;;
16516;SDS011;8371;52.272;9.746;2023-02-04T15:06:00;0.87;;;0.87;;
16516;SDS011;8371;52.272;9.746;2023-02-04T15:08:26;1.07;;;0.60;;